sensor_id;sensor_type;location;lat;lon;timestamp;pressure;altitude;pressure_sealevel;temperature;humidity
12182;BME280;6154;51.550;12.138;2023-05-07T00:01:46;100978.63;;;16.24;57.80
12182;BME280;6154;51.550;12.138;2023-05-07T00:04:15;100975.00;;;16.25;57.53
12182;BME280;6154;51.550;12.138;2023-05-07T00:06:43;100971.34;;;16.26;57.58
12182;BME280;6154;51.550;12.138;2023-05-07T00:09:11;100964.94;;;16.28;57.32
12182;BME280;6154;51.550;12.138;2023-05-07T00:11:41;100966.53;;;16.31;57.05
12182;BME280;6154;51.550;12.138;2023-05-07T00:14:09;100956.19;;;16.26;57.90
12182;BME280;6154;51.550;12.138;2023-05-07T00:16:37;100964.50;;;16.34;56.92
12182;BME280;6154;51.550;12.138;2023-05-07T00:19:05;100963.09;;;16.29;57.05
12182;BME280;6154;51.550;12.138;2023-05-07T00:21:33;100960.44;;;16.29;56.86
12182;BME280;6154;51.550;12.138;2023-05-07T00:24:01;100952.53;;;16.27;56.98
12182;BME280;6154;51.550;12.138;2023-05-07T00:26:32;100952.44;;;16.29;56.96
12182;BME280;6154;51.550;12.138;2023-05-07T00:29:02;100956.06;;;16.28;56.80
12182;BME280;6154;51.550;12.138;2023-05-07T00:31:30;100960.44;;;16.29;56.66
12182;BME280;6154;51.550;12.138;2023-05-07T00:33:58;100964.19;;;16.26;56.54
12182;BME280;6154;51.550;12.138;2023-05-07T00:36:26;100955.63;;;16.21;56.59
12182;BME280;6154;51.550;12.138;2023-05-07T00:38:56;100957.34;;;16.22;56.57
12182;BME280;6154;51.550;12.138;2023-05-07T00:41:26;100960.13;;;16.21;56.65
12182;BME280;6154;51.550;12.138;2023-05-07T00:43:55;100960.44;;;16.16;57.22
12182;BME280;6154;51.550;12.138;2023-05-07T00:46:24;100960.56;;;16.15;56.68
12182;BME280;6154;51.550;12.138;2023-05-07T00:48:53;100960.34;;;16.18;56.42
12182;BME280;6154;51.550;12.138;2023-05-07T00:51:23;100968.00;;;16.22;56.30
12182;BME280;6154;51.550;12.138;2023-05-07T00:53:54;100967.16;;;16.22;56.58
12182;BME280;6154;51.550;12.138;2023-05-07T00:56:23;100970.69;;;16.22;56.57
12182;BME280;6154;51.550;12.138;2023-05-07T00:58:51;100966.75;;;16.28;56.26
12182;BME280;6154;51.550;12.138;2023-05-07T01:01:19;100979.56;;;16.23;57.16
12182;BME280;6154;51.550;12.138;2023-05-07T01:03:49;100971.25;;;16.15;57.78
12182;BME280;6154;51.550;12.138;2023-05-07T01:06:18;100973.16;;;16.13;57.25
12182;BME280;6154;51.550;12.138;2023-05-07T01:08:49;100970.47;;;16.13;56.75
12182;BME280;6154;51.550;12.138;2023-05-07T01:11:19;100975.81;;;16.13;56.74
12182;BME280;6154;51.550;12.138;2023-05-07T01:13:49;100978.47;;;16.13;56.68
12182;BME280;6154;51.550;12.138;2023-05-07T01:16:18;100977.31;;;16.17;56.46
12182;BME280;6154;51.550;12.138;2023-05-07T01:18:47;100969.22;;;16.18;56.37
12182;BME280;6154;51.550;12.138;2023-05-07T01:21:18;100974.78;;;16.15;56.55
12182;BME280;6154;51.550;12.138;2023-05-07T01:23:49;100966.88;;;16.14;56.44
12182;BME280;6154;51.550;12.138;2023-05-07T01:26:17;100969.63;;;16.12;56.75
12182;BME280;6154;51.550;12.138;2023-05-07T01:28:46;100964.50;;;16.09;56.62
12182;BME280;6154;51.550;12.138;2023-05-07T01:31:15;100962.78;;;16.08;56.57
12182;BME280;6154;51.550;12.138;2023-05-07T01:33:45;100966.22;;;16.10;56.27
12182;BME280;6154;51.550;12.138;2023-05-07T01:36:17;100965.03;;;16.01;56.89
12182;BME280;6154;51.550;12.138;2023-05-07T01:38:48;100967.59;;;16.03;56.82
12182;BME280;6154;51.550;12.138;2023-05-07T01:41:17;100971.22;;;16.02;56.72
12182;BME280;6154;51.550;12.138;2023-05-07T01:43:46;100972.19;;;16.01;56.78
12182;BME280;6154;51.550;12.138;2023-05-07T01:46:15;100972.84;;;16.04;56.38
12182;BME280;6154;51.550;12.138;2023-05-07T01:48:44;100976.25;;;16.06;56.69
12182;BME280;6154;51.550;12.138;2023-05-07T01:51:13;100971.03;;;16.05;56.63
12182;BME280;6154;51.550;12.138;2023-05-07T01:53:41;100967.81;;;16.00;56.89
12182;BME280;6154;51.550;12.138;2023-05-07T01:56:11;100973.69;;;16.05;56.31
12182;BME280;6154;51.550;12.138;2023-05-07T01:58:40;100972.63;;;16.07;56.39
12182;BME280;6154;51.550;12.138;2023-05-07T02:01:08;100977.00;;;16.08;56.20
12182;BME280;6154;51.550;12.138;2023-05-07T02:03:37;100973.59;;;16.06;56.41
12182;BME280;6154;51.550;12.138;2023-05-07T02:06:06;100968.13;;;16.08;56.39
12182;BME280;6154;51.550;12.138;2023-05-07T02:08:35;100970.25;;;16.03;56.31
12182;BME280;6154;51.550;12.138;2023-05-07T02:11:03;100970.47;;;16.00;56.62
12182;BME280;6154;51.550;12.138;2023-05-07T02:13:33;100965.69;;;16.05;56.18
12182;BME280;6154;51.550;12.138;2023-05-07T02:16:03;100965.03;;;16.01;56.71
12182;BME280;6154;51.550;12.138;2023-05-07T02:18:33;100968.34;;;16.05;56.17
12182;BME280;6154;51.550;12.138;2023-05-07T02:21:02;100969.84;;;16.09;56.02
12182;BME280;6154;51.550;12.138;2023-05-07T02:23:31;100974.75;;;16.02;56.55
12182;BME280;6154;51.550;12.138;2023-05-07T02:26:03;100973.59;;;16.06;56.02
12182;BME280;6154;51.550;12.138;2023-05-07T02:28:33;100976.37;;;16.05;56.53
12182;BME280;6154;51.550;12.138;2023-05-07T02:31:03;100975.41;;;16.06;56.39
12182;BME280;6154;51.550;12.138;2023-05-07T02:33:31;100977.84;;;16.09;56.11
12182;BME280;6154;51.550;12.138;2023-05-07T02:36:06;100983.09;;;15.98;56.77
12182;BME280;6154;51.550;12.138;2023-05-07T02:38:35;100987.34;;;16.00;56.81
12182;BME280;6154;51.550;12.138;2023-05-07T02:41:06;100986.50;;;16.00;56.80
12182;BME280;6154;51.550;12.138;2023-05-07T02:43:36;100986.94;;;15.94;56.95
12182;BME280;6154;51.550;12.138;2023-05-07T02:46:05;100982.22;;;15.97;56.50
12182;BME280;6154;51.550;12.138;2023-05-07T02:48:34;100993.88;;;15.96;56.52
12182;BME280;6154;51.550;12.138;2023-05-07T02:51:03;100995.56;;;15.97;56.38
12182;BME280;6154;51.550;12.138;2023-05-07T02:53:32;100999.09;;;15.98;56.19
12182;BME280;6154;51.550;12.138;2023-05-07T02:56:01;101007.97;;;15.98;56.47
12182;BME280;6154;51.550;12.138;2023-05-07T02:58:29;101002.00;;;15.95;56.77
12182;BME280;6154;51.550;12.138;2023-05-07T03:00:59;100996.53;;;15.96;56.55
12182;BME280;6154;51.550;12.138;2023-05-07T03:03:28;100997.16;;;16.00;56.30
12182;BME280;6154;51.550;12.138;2023-05-07T03:05:56;100989.06;;;16.01;56.32
12182;BME280;6154;51.550;12.138;2023-05-07T03:08:25;100991.72;;;16.01;56.43
12182;BME280;6154;51.550;12.138;2023-05-07T03:10:53;100986.28;;;16.03;56.35
12182;BME280;6154;51.550;12.138;2023-05-07T03:13:21;100987.34;;;16.00;56.64
12182;BME280;6154;51.550;12.138;2023-05-07T03:15:50;100983.72;;;16.01;56.43
12182;BME280;6154;51.550;12.138;2023-05-07T03:18:20;100987.25;;;16.02;56.70
12182;BME280;6154;51.550;12.138;2023-05-07T03:20:48;100988.31;;;15.99;56.54
12182;BME280;6154;51.550;12.138;2023-05-07T03:23:17;100988.09;;;16.02;56.40
12182;BME280;6154;51.550;12.138;2023-05-07T03:25:45;100981.81;;;16.03;56.19
12182;BME280;6154;51.550;12.138;2023-05-07T03:28:13;100985.22;;;16.05;56.17
12182;BME280;6154;51.550;12.138;2023-05-07T03:30:41;100984.38;;;16.05;56.63
12182;BME280;6154;51.550;12.138;2023-05-07T03:33:10;100990.34;;;16.08;56.39
12182;BME280;6154;51.550;12.138;2023-05-07T03:35:40;100996.44;;;15.98;57.32
12182;BME280;6154;51.550;12.138;2023-05-07T03:38:08;100986.50;;;16.00;57.22
12182;BME280;6154;51.550;12.138;2023-05-07T03:40:37;100990.13;;;15.99;57.08
12182;BME280;6154;51.550;12.138;2023-05-07T03:43:05;100985.63;;;15.99;56.94
12182;BME280;6154;51.550;12.138;2023-05-07T03:45:34;100987.34;;;16.00;56.86
12182;BME280;6154;51.550;12.138;2023-05-07T03:48:04;100995.06;;;16.05;56.75
12182;BME280;6154;51.550;12.138;2023-05-07T03:50:32;100994.94;;;16.06;56.83
12182;BME280;6154;51.550;12.138;2023-05-07T03:53:02;100999.09;;;16.10;56.42
12182;BME280;6154;51.550;12.138;2023-05-07T03:55:30;101000.63;;;16.15;56.54
12182;BME280;6154;51.550;12.138;2023-05-07T03:57:59;101014.16;;;16.12;56.84
12182;BME280;6154;51.550;12.138;2023-05-07T04:00:27;101011.31;;;16.15;56.55
12182;BME280;6154;51.550;12.138;2023-05-07T04:02:58;101015.69;;;16.16;56.53
12182;BME280;6154;51.550;12.138;2023-05-07T04:05:26;101022.63;;;16.18;56.66
12182;BME280;6154;51.550;12.138;2023-05-07T04:07:55;101022.28;;;16.23;56.49
12182;BME280;6154;51.550;12.138;2023-05-07T04:10:25;101018.69;;;16.24;56.86
12182;BME280;6154;51.550;12.138;2023-05-07T04:12:55;101017.50;;;16.28;56.76
12182;BME280;6154;51.550;12.138;2023-05-07T04:15:24;101026.91;;;16.33;56.45
12182;BME280;6154;51.550;12.138;2023-05-07T04:17:52;101025.72;;;16.25;57.83
12182;BME280;6154;51.550;12.138;2023-05-07T04:20:21;101028.59;;;16.22;57.51
12182;BME280;6154;51.550;12.138;2023-05-07T04:22:50;101033.41;;;16.17;57.58
12182;BME280;6154;51.550;12.138;2023-05-07T04:25:18;101029.66;;;16.06;58.33
12182;BME280;6154;51.550;12.138;2023-05-07T04:27:48;101032.66;;;16.15;57.39
12182;BME280;6154;51.550;12.138;2023-05-07T04:30:18;101026.25;;;16.17;57.08
12182;BME280;6154;51.550;12.138;2023-05-07T04:32:47;101019.84;;;16.20;57.03
12182;BME280;6154;51.550;12.138;2023-05-07T04:35:15;101014.50;;;16.20;57.19
12182;BME280;6154;51.550;12.138;2023-05-07T04:37:44;101012.56;;;16.22;57.21
12182;BME280;6154;51.550;12.138;2023-05-07T04:40:13;101014.09;;;16.26;56.85
12182;BME280;6154;51.550;12.138;2023-05-07T04:42:42;101021.13;;;16.27;57.20
12182;BME280;6154;51.550;12.138;2023-05-07T04:45:11;101020.91;;;16.30;56.97
12182;BME280;6154;51.550;12.138;2023-05-07T04:47:40;101026.03;;;16.33;56.63
12182;BME280;6154;51.550;12.138;2023-05-07T04:50:09;101035.34;;;16.40;56.75
12182;BME280;6154;51.550;12.138;2023-05-07T04:52:39;101050.50;;;16.39;56.87
12182;BME280;6154;51.550;12.138;2023-05-07T04:55:08;101041.00;;;16.35;57.08
12182;BME280;6154;51.550;12.138;2023-05-07T04:57:36;101044.22;;;16.41;56.71
12182;BME280;6154;51.550;12.138;2023-05-07T05:00:08;101048.59;;;16.42;56.65
12182;BME280;6154;51.550;12.138;2023-05-07T05:02:40;101044.22;;;16.41;56.78
12182;BME280;6154;51.550;12.138;2023-05-07T05:05:09;101042.19;;;16.44;56.74
12182;BME280;6154;51.550;12.138;2023-05-07T05:07:37;101042.09;;;16.46;56.71
12182;BME280;6154;51.550;12.138;2023-05-07T05:10:07;101050.22;;;16.44;57.04
12182;BME280;6154;51.550;12.138;2023-05-07T05:12:37;101048.69;;;16.40;57.04
12182;BME280;6154;51.550;12.138;2023-05-07T05:15:06;101055.56;;;16.44;57.02
12182;BME280;6154;51.550;12.138;2023-05-07T05:17:34;101062.16;;;16.51;56.73
12182;BME280;6154;51.550;12.138;2023-05-07T05:20:06;101061.00;;;16.55;56.77
12182;BME280;6154;51.550;12.138;2023-05-07T05:22:46;101060.34;;;16.52;57.06
12182;BME280;6154;51.550;12.138;2023-05-07T05:25:15;101057.22;;;16.32;58.30
12182;BME280;6154;51.550;12.138;2023-05-07T05:27:43;101053.28;;;16.51;57.01
12182;BME280;6154;51.550;12.138;2023-05-07T05:30:12;101054.16;;;16.51;57.17
12182;BME280;6154;51.550;12.138;2023-05-07T05:32:42;101053.84;;;16.56;56.84
12182;BME280;6154;51.550;12.138;2023-05-07T05:35:12;101059.59;;;16.62;56.81
12182;BME280;6154;51.550;12.138;2023-05-07T05:37:41;101064.94;;;16.62;57.20
12182;BME280;6154;51.550;12.138;2023-05-07T05:40:10;101062.25;;;16.62;57.19
12182;BME280;6154;51.550;12.138;2023-05-07T05:42:38;101073.44;;;16.69;56.89
12182;BME280;6154;51.550;12.138;2023-05-07T05:45:08;101079.62;;;16.70;56.94
12182;BME280;6154;51.550;12.138;2023-05-07T05:47:37;101081.13;;;16.74;56.50
12182;BME280;6154;51.550;12.138;2023-05-07T05:50:09;101087.22;;;16.76;56.98
12182;BME280;6154;51.550;12.138;2023-05-07T05:52:39;101084.84;;;16.71;56.65
12182;BME280;6154;51.550;12.138;2023-05-07T05:55:08;101087.28;;;16.61;56.62
12182;BME280;6154;51.550;12.138;2023-05-07T05:57:37;101088.59;;;16.81;56.48
12182;BME280;6154;51.550;12.138;2023-05-07T06:00:06;101091.06;;;16.84;56.25
12182;BME280;6154;51.550;12.138;2023-05-07T06:02:44;101093.19;;;16.79;57.13
12182;BME280;6154;51.550;12.138;2023-05-07T06:05:14;101097.34;;;16.83;56.56
12182;BME280;6154;51.550;12.138;2023-05-07T06:07:43;101097.78;;;16.90;56.68
12182;BME280;6154;51.550;12.138;2023-05-07T06:10:12;101098.13;;;16.85;56.05
12182;BME280;6154;51.550;12.138;2023-05-07T06:12:40;101099.59;;;17.02;56.34
12182;BME280;6154;51.550;12.138;2023-05-07T06:15:10;101104.19;;;17.00;56.40
12182;BME280;6154;51.550;12.138;2023-05-07T06:17:39;101097.44;;;17.07;56.28
12182;BME280;6154;51.550;12.138;2023-05-07T06:20:08;101091.28;;;16.94;56.52
12182;BME280;6154;51.550;12.138;2023-05-07T06:22:37;101091.91;;;16.98;56.64
12182;BME280;6154;51.550;12.138;2023-05-07T06:25:09;101093.28;;;17.16;56.37
12182;BME280;6154;51.550;12.138;2023-05-07T06:27:38;101091.25;;;17.07;56.40
12182;BME280;6154;51.550;12.138;2023-05-07T06:30:08;101098.81;;;17.13;56.07
12182;BME280;6154;51.550;12.138;2023-05-07T06:32:37;101094.84;;;17.18;56.23
12182;BME280;6154;51.550;12.138;2023-05-07T06:35:05;101097.53;;;17.18;56.22
12182;BME280;6154;51.550;12.138;2023-05-07T06:37:34;101096.34;;;17.22;55.81
12182;BME280;6154;51.550;12.138;2023-05-07T06:40:06;101094.87;;;17.42;56.24
12182;BME280;6154;51.550;12.138;2023-05-07T06:42:36;101100.66;;;17.49;56.06
12182;BME280;6154;51.550;12.138;2023-05-07T06:45:16;101109.44;;;17.51;55.56
12182;BME280;6154;51.550;12.138;2023-05-07T06:47:48;101111.03;;;17.53;55.23
12182;BME280;6154;51.550;12.138;2023-05-07T06:50:17;101114.03;;;17.49;55.62
12182;BME280;6154;51.550;12.138;2023-05-07T06:52:47;101117.94;;;17.45;55.23
12182;BME280;6154;51.550;12.138;2023-05-07T06:55:20;101119.41;;;17.49;55.31
12182;BME280;6154;51.550;12.138;2023-05-07T06:57:50;101111.91;;;17.54;55.30
12182;BME280;6154;51.550;12.138;2023-05-07T07:00:19;101120.72;;;17.67;55.31
12182;BME280;6154;51.550;12.138;2023-05-07T07:02:49;101122.13;;;17.73;55.17
12182;BME280;6154;51.550;12.138;2023-05-07T07:05:18;101127.66;;;17.83;55.10
12182;BME280;6154;51.550;12.138;2023-05-07T07:07:47;101113.28;;;17.84;54.96
12182;BME280;6154;51.550;12.138;2023-05-07T07:10:22;101118.25;;;17.77;55.08
12182;BME280;6154;51.550;12.138;2023-05-07T07:12:52;101111.31;;;17.74;54.95
12182;BME280;6154;51.550;12.138;2023-05-07T07:15:21;101115.47;;;17.78;54.88
12182;BME280;6154;51.550;12.138;2023-05-07T07:17:52;101111.81;;;17.79;54.88
12182;BME280;6154;51.550;12.138;2023-05-07T07:20:21;101109.00;;;17.57;54.58
12182;BME280;6154;51.550;12.138;2023-05-07T07:22:50;101110.03;;;17.67;55.01
12182;BME280;6154;51.550;12.138;2023-05-07T07:25:18;101119.13;;;17.77;54.80
12182;BME280;6154;51.550;12.138;2023-05-07T07:27:47;101116.16;;;17.69;54.60
12182;BME280;6154;51.550;12.138;2023-05-07T07:30:17;101110.84;;;17.80;54.58
12182;BME280;6154;51.550;12.138;2023-05-07T07:32:46;101114.78;;;17.88;54.64
12182;BME280;6154;51.550;12.138;2023-05-07T07:35:15;101120.88;;;17.90;54.41
12182;BME280;6154;51.550;12.138;2023-05-07T07:37:47;101119.69;;;17.94;54.41
12182;BME280;6154;51.550;12.138;2023-05-07T07:40:17;101125.06;;;17.94;54.24
12182;BME280;6154;51.550;12.138;2023-05-07T07:42:45;101118.44;;;17.87;53.51
12182;BME280;6154;51.550;12.138;2023-05-07T07:45:13;101119.22;;;18.00;54.20
12182;BME280;6154;51.550;12.138;2023-05-07T07:47:43;101133.09;;;17.94;54.23
12182;BME280;6154;51.550;12.138;2023-05-07T07:50:12;101133.47;;;17.76;53.50
12182;BME280;6154;51.550;12.138;2023-05-07T07:52:51;101137.28;;;18.09;54.50
12182;BME280;6154;51.550;12.138;2023-05-07T07:55:20;101130.81;;;18.35;54.07
12182;BME280;6154;51.550;12.138;2023-05-07T07:57:50;101129.31;;;18.31;53.24
12182;BME280;6154;51.550;12.138;2023-05-07T08:00:19;101136.38;;;18.32;53.60
12182;BME280;6154;51.550;12.138;2023-05-07T08:02:53;101136.94;;;18.49;53.43
12182;BME280;6154;51.550;12.138;2023-05-07T08:05:26;101143.81;;;18.29;53.18
12182;BME280;6154;51.550;12.138;2023-05-07T08:07:58;101149.91;;;18.31;53.13
12182;BME280;6154;51.550;12.138;2023-05-07T08:10:27;101141.44;;;18.48;53.27
12182;BME280;6154;51.550;12.138;2023-05-07T08:12:55;101150.81;;;18.43;52.54
12182;BME280;6154;51.550;12.138;2023-05-07T08:15:24;101146.97;;;18.58;52.91
12182;BME280;6154;51.550;12.138;2023-05-07T08:17:54;101145.72;;;18.86;52.98
12182;BME280;6154;51.550;12.138;2023-05-07T08:20:25;101154.63;;;18.98;52.78
12182;BME280;6154;51.550;12.138;2023-05-07T08:22:53;101153.91;;;19.07;52.70
12182;BME280;6154;51.550;12.138;2023-05-07T08:25:23;101163.88;;;18.93;52.53
12182;BME280;6154;51.550;12.138;2023-05-07T08:27:53;101161.44;;;19.02;52.88
12182;BME280;6154;51.550;12.138;2023-05-07T08:30:22;101166.81;;;19.13;52.46
12182;BME280;6154;51.550;12.138;2023-05-07T08:32:51;101167.19;;;19.08;52.21
12182;BME280;6154;51.550;12.138;2023-05-07T08:35:21;101160.84;;;18.87;51.88
12182;BME280;6154;51.550;12.138;2023-05-07T08:37:50;101161.28;;;18.81;51.82
12182;BME280;6154;51.550;12.138;2023-05-07T08:40:19;101166.53;;;18.82;51.72
12182;BME280;6154;51.550;12.138;2023-05-07T08:42:49;101165.81;;;18.91;52.25
12182;BME280;6154;51.550;12.138;2023-05-07T08:45:19;101164.75;;;18.94;52.14
12182;BME280;6154;51.550;12.138;2023-05-07T08:47:51;101170.34;;;18.91;52.16
12182;BME280;6154;51.550;12.138;2023-05-07T08:50:22;101171.19;;;18.91;52.17
12182;BME280;6154;51.550;12.138;2023-05-07T08:52:51;101171.53;;;18.76;51.68
12182;BME280;6154;51.550;12.138;2023-05-07T08:55:20;101163.63;;;18.74;52.04
12182;BME280;6154;51.550;12.138;2023-05-07T08:57:50;101171.81;;;18.60;52.48
12182;BME280;6154;51.550;12.138;2023-05-07T09:00:20;101179.56;;;18.41;52.50
12182;BME280;6154;51.550;12.138;2023-05-07T09:02:50;101176.63;;;18.44;52.68
12182;BME280;6154;51.550;12.138;2023-05-07T09:05:19;101180.44;;;18.52;52.99
12182;BME280;6154;51.550;12.138;2023-05-07T09:07:49;101185.72;;;18.30;52.48
12182;BME280;6154;51.550;12.138;2023-05-07T09:10:23;101188.53;;;18.28;52.35
12182;BME280;6154;51.550;12.138;2023-05-07T09:12:52;101190.94;;;18.55;52.62
12182;BME280;6154;51.550;12.138;2023-05-07T09:15:21;101188.59;;;18.51;52.32
12182;BME280;6154;51.550;12.138;2023-05-07T09:17:59;101189.50;;;18.62;52.05
12182;BME280;6154;51.550;12.138;2023-05-07T09:20:30;101185.09;;;18.85;52.26
12182;BME280;6154;51.550;12.138;2023-05-07T09:23:01;101183.41;;;18.95;52.42
12182;BME280;6154;51.550;12.138;2023-05-07T09:25:31;101181.00;;;19.15;51.79
12182;BME280;6154;51.550;12.138;2023-05-07T09:28:01;101183.28;;;19.42;51.83
12182;BME280;6154;51.550;12.138;2023-05-07T09:30:32;101183.03;;;19.34;52.03
12182;BME280;6154;51.550;12.138;2023-05-07T09:33:02;101193.37;;;18.93;51.51
12182;BME280;6154;51.550;12.138;2023-05-07T09:35:32;101192.78;;;19.01;52.13
12182;BME280;6154;51.550;12.138;2023-05-07T09:38:03;101179.28;;;19.25;52.35
12182;BME280;6154;51.550;12.138;2023-05-07T09:40:32;101178.91;;;19.18;52.76
12182;BME280;6154;51.550;12.138;2023-05-07T09:43:09;101182.31;;;19.43;52.47
12182;BME280;6154;51.550;12.138;2023-05-07T09:45:42;101185.03;;;19.54;51.57
12182;BME280;6154;51.550;12.138;2023-05-07T09:48:11;101183.44;;;19.63;51.08
12182;BME280;6154;51.550;12.138;2023-05-07T09:50:48;101180.38;;;19.45;51.32
12182;BME280;6154;51.550;12.138;2023-05-07T09:53:19;101180.97;;;19.48;51.15
12182;BME280;6154;51.550;12.138;2023-05-07T09:55:48;101181.09;;;19.47;51.29
12182;BME280;6154;51.550;12.138;2023-05-07T09:58:18;101183.66;;;19.71;51.95
12182;BME280;6154;51.550;12.138;2023-05-07T10:00:49;101190.16;;;19.68;51.62
12182;BME280;6154;51.550;12.138;2023-05-07T10:03:19;101180.00;;;19.61;51.71
12182;BME280;6154;51.550;12.138;2023-05-07T10:05:49;101177.56;;;19.69;51.37
12182;BME280;6154;51.550;12.138;2023-05-07T10:08:20;101180.97;;;19.48;51.32
12182;BME280;6154;51.550;12.138;2023-05-07T10:10:49;101183.28;;;19.42;51.50
12182;BME280;6154;51.550;12.138;2023-05-07T10:13:20;101190.03;;;19.25;51.84
12182;BME280;6154;51.550;12.138;2023-05-07T10:15:50;101183.19;;;19.55;51.40
12182;BME280;6154;51.550;12.138;2023-05-07T10:18:20;101182.44;;;19.30;51.71
12182;BME280;6154;51.550;12.138;2023-05-07T10:20:52;101187.34;;;19.59;51.90
12182;BME280;6154;51.550;12.138;2023-05-07T10:23:24;101191.00;;;19.35;51.98
12182;BME280;6154;51.550;12.138;2023-05-07T10:26:04;101188.78;;;19.51;51.90
12182;BME280;6154;51.550;12.138;2023-05-07T10:28:42;101188.06;;;19.38;51.87
12182;BME280;6154;51.550;12.138;2023-05-07T10:31:26;101189.03;;;19.37;51.31
12182;BME280;6154;51.550;12.138;2023-05-07T10:34:08;101186.22;;;19.50;51.17
12182;BME280;6154;51.550;12.138;2023-05-07T10:36:40;101197.56;;;19.42;51.20
12182;BME280;6154;51.550;12.138;2023-05-07T10:39:11;101199.53;;;19.51;51.75
12182;BME280;6154;51.550;12.138;2023-05-07T10:41:41;101198.69;;;19.40;51.68
12182;BME280;6154;51.550;12.138;2023-05-07T10:44:09;101199.41;;;19.53;51.44
12182;BME280;6154;51.550;12.138;2023-05-07T10:46:39;101198.53;;;19.52;51.40
12182;BME280;6154;51.550;12.138;2023-05-07T10:49:15;101202.72;;;19.68;51.71
12182;BME280;6154;51.550;12.138;2023-05-07T10:51:44;101199.19;;;19.56;50.51
12182;BME280;6154;51.550;12.138;2023-05-07T10:54:22;101193.66;;;19.80;50.96
12182;BME280;6154;51.550;12.138;2023-05-07T10:56:52;101198.06;;;19.81;50.31
12182;BME280;6154;51.550;12.138;2023-05-07T10:59:34;101204.66;;;19.88;50.32
12182;BME280;6154;51.550;12.138;2023-05-07T11:02:09;101216.72;;;20.05;49.69
12182;BME280;6154;51.550;12.138;2023-05-07T11:04:42;101216.72;;;20.05;50.83
12182;BME280;6154;51.550;12.138;2023-05-07T11:07:27;101208.34;;;19.65;50.93
12182;BME280;6154;51.550;12.138;2023-05-07T11:10:03;101211.88;;;19.54;50.28
12182;BME280;6154;51.550;12.138;2023-05-07T11:12:53;101212.94;;;19.51;50.58
12182;BME280;6154;51.550;12.138;2023-05-07T11:15:43;101204.66;;;19.55;50.08
12182;BME280;6154;51.550;12.138;2023-05-07T11:18:16;101209.94;;;19.67;50.17
12182;BME280;6154;51.550;12.138;2023-05-07T11:20:51;101205.66;;;19.76;50.68
12182;BME280;6154;51.550;12.138;2023-05-07T11:23:56;101206.84;;;19.94;50.96
12182;BME280;6154;51.550;12.138;2023-05-07T11:26:31;101210.28;;;19.85;50.08
12182;BME280;6154;51.550;12.138;2023-05-07T11:29:13;101213.59;;;19.66;51.08
12182;BME280;6154;51.550;12.138;2023-05-07T11:31:48;101210.37;;;19.50;50.75
12182;BME280;6154;51.550;12.138;2023-05-07T11:34:21;101212.97;;;19.63;51.15
12182;BME280;6154;51.550;12.138;2023-05-07T11:36:52;101206.87;;;19.61;51.02
12182;BME280;6154;51.550;12.138;2023-05-07T11:39:27;101205.53;;;19.66;51.35
12182;BME280;6154;51.550;12.138;2023-05-07T11:41:57;101205.50;;;19.44;50.59
12182;BME280;6154;51.550;12.138;2023-05-07T11:44:42;101207.34;;;19.77;50.35
12182;BME280;6154;51.550;12.138;2023-05-07T11:47:11;101207.50;;;19.64;49.73
12182;BME280;6154;51.550;12.138;2023-05-07T11:49:39;101206.59;;;19.86;50.28
12182;BME280;6154;51.550;12.138;2023-05-07T11:52:08;101206.22;;;20.34;50.80
12182;BME280;6154;51.550;12.138;2023-05-07T11:54:36;101213.13;;;20.59;50.75
12182;BME280;6154;51.550;12.138;2023-05-07T11:57:06;101208.66;;;20.90;50.29
12182;BME280;6154;51.550;12.138;2023-05-07T11:59:38;101206.37;;;21.06;50.25
12182;BME280;6154;51.550;12.138;2023-05-07T12:02:08;101213.03;;;21.12;48.85
12182;BME280;6154;51.550;12.138;2023-05-07T12:04:37;101212.47;;;21.08;48.68
12182;BME280;6154;51.550;12.138;2023-05-07T12:07:06;101198.44;;;21.14;48.87
12182;BME280;6154;51.550;12.138;2023-05-07T12:09:39;101213.37;;;21.18;49.74
12182;BME280;6154;51.550;12.138;2023-05-07T12:12:09;101206.75;;;21.02;49.61
12182;BME280;6154;51.550;12.138;2023-05-07T12:14:37;101206.56;;;20.93;49.29
12182;BME280;6154;51.550;12.138;2023-05-07T12:17:07;101206.37;;;20.64;49.14
12182;BME280;6154;51.550;12.138;2023-05-07T12:19:36;101210.00;;;20.43;49.42
12182;BME280;6154;51.550;12.138;2023-05-07T12:22:07;101202.75;;;20.54;49.51
12182;BME280;6154;51.550;12.138;2023-05-07T12:24:45;101201.44;;;20.49;50.08
12182;BME280;6154;51.550;12.138;2023-05-07T12:27:16;101196.41;;;20.44;49.33
12182;BME280;6154;51.550;12.138;2023-05-07T12:29:45;101200.94;;;20.44;49.73
12182;BME280;6154;51.550;12.138;2023-05-07T12:32:15;101193.25;;;20.39;50.42
12182;BME280;6154;51.550;12.138;2023-05-07T12:34:43;101197.16;;;20.03;49.83
12182;BME280;6154;51.550;12.138;2023-05-07T12:37:12;101197.41;;;20.32;49.62
12182;BME280;6154;51.550;12.138;2023-05-07T12:39:44;101203.06;;;20.29;49.76
12182;BME280;6154;51.550;12.138;2023-05-07T12:42:19;101203.72;;;20.10;49.34
12182;BME280;6154;51.550;12.138;2023-05-07T12:44:50;101192.97;;;20.42;49.76
12182;BME280;6154;51.550;12.138;2023-05-07T12:47:20;101190.41;;;20.73;50.06
12182;BME280;6154;51.550;12.138;2023-05-07T12:49:48;101201.50;;;20.58;48.64
12182;BME280;6154;51.550;12.138;2023-05-07T12:52:17;101199.44;;;21.13;49.55
12182;BME280;6154;51.550;12.138;2023-05-07T12:54:45;101208.06;;;21.07;49.20
12182;BME280;6154;51.550;12.138;2023-05-07T12:57:13;101211.47;;;21.09;47.68
12182;BME280;6154;51.550;12.138;2023-05-07T12:59:43;101203.97;;;21.34;49.17
12182;BME280;6154;51.550;12.138;2023-05-07T13:02:11;101203.78;;;21.26;48.34
12182;BME280;6154;51.550;12.138;2023-05-07T13:04:39;101200.69;;;21.30;48.14
12182;BME280;6154;51.550;12.138;2023-05-07T13:07:08;101204.50;;;21.58;48.53